Terminal Aerodrome Forecast
Issued by NWS

Home | Current Version | Previous Version | Graphics & Text | Print | Product List | Glossary On
Versions: 1 2 3 4 5 6 7 8 9 10 11 12 13 14 15 16 17 18 19 20
000
FTUS43 KMPX 200500
TAFRWF
TAF
KRWF 200520Z 2006/2106 15006KT 5SM BR OVC012
     FM200900 15008KT 3SM BR OVC004
     FM201500 17008KT 5SM BR OVC008
     FM202000 18009KT P6SM OVC015
     FM210000 15009KT P6SM BKN015 OVC025=

USA.gov is the U.S. government's official web portal to all federal, state and local government web resources and services.